createdAt,value
2018-10-21T00:02:09.429Z,101758.94
2018-10-21T00:04:39.153Z,101751.95
2018-10-21T00:07:09.432Z,101754.92
2018-10-21T00:09:39.182Z,101755.28
2018-10-21T00:12:08.949Z,101752.91
2018-10-21T00:14:38.963Z,101747.75
2018-10-21T00:17:08.637Z,101747.75
2018-10-21T00:19:38.416Z,101758.35
2018-10-21T00:22:08.207Z,101752.60
2018-10-21T00:24:37.985Z,101743.47
2018-10-21T00:27:08.070Z,101746.12
2018-10-21T00:29:37.840Z,101745.31
2018-10-21T00:32:07.664Z,101740.66
2018-10-21T00:34:37.434Z,101743.72
2018-10-21T00:37:07.516Z,101740.41
2018-10-21T00:39:37.402Z,101747.94
2018-10-21T00:42:07.365Z,101737.73
2018-10-21T00:44:37.142Z,101737.51
2018-10-21T00:47:06.955Z,101738.64
2018-10-21T00:49:36.792Z,101735.11
2018-10-21T00:52:07.232Z,101727.53
2018-10-21T00:54:37.026Z,101733.50
2018-10-21T00:57:07.067Z,101729.00
2018-10-21T00:59:36.850Z,101729.72
2018-10-21T01:02:07.335Z,101727.98
2018-10-21T01:04:37.074Z,101733.73
2018-10-21T01:07:07.152Z,101741.34
2018-10-21T01:09:37.036Z,101746.70
2018-10-21T01:12:07.467Z,101742.17
2018-10-21T01:14:37.215Z,101744.48
2018-10-21T01:17:07.304Z,101738.20
2018-10-21T01:19:37.120Z,101741.78
2018-10-21T01:22:07.074Z,101732.52
2018-10-21T01:24:36.752Z,101743.25
2018-10-21T01:27:07.494Z,101741.90
2018-10-21T01:29:37.136Z,101738.20
2018-10-21T01:32:07.109Z,101738.47
2018-10-21T01:34:36.867Z,101741.81
2018-10-21T01:37:07.018Z,101740.59
2018-10-21T01:40:47.104Z,101738.80
2018-10-21T01:43:19.187Z,101733.40
2018-10-21T01:45:48.903Z,101734.94
2018-10-21T01:48:19.669Z,101738.22
2018-10-21T01:50:49.407Z,101732.78
2018-10-21T01:53:19.851Z,101737.28
2018-10-21T01:55:49.721Z,101730.60
2018-10-21T01:58:19.491Z,101728.48
2018-10-21T02:00:49.226Z,101733.41
2018-10-21T02:03:19.112Z,101740.47
2018-10-21T02:05:49.136Z,101732.45
2018-10-21T02:08:18.832Z,101728.78
2018-10-21T02:10:48.493Z,101735.37
2018-10-21T02:13:18.367Z,101737.74
2018-10-21T02:15:48.161Z,101732.81
2018-10-21T02:18:17.861Z,101735.33
2018-10-21T02:20:47.578Z,101733.34
2018-10-21T02:23:17.752Z,101736.26
2018-10-21T02:25:47.463Z,101738.33
2018-10-21T02:28:17.177Z,101739.20
2018-10-21T02:30:47.083Z,101733.44
2018-10-21T02:33:16.894Z,101735.35
2018-10-21T02:35:46.550Z,101730.14
2018-10-21T02:38:16.255Z,101730.02
2018-10-21T02:41:31.283Z,101726.22
2018-10-21T02:44:01.152Z,101728.45
2018-10-21T02:46:31.206Z,101726.80
2018-10-21T02:49:01.613Z,101725.77
2018-10-21T02:51:31.319Z,101717.61
2018-10-21T02:54:00.990Z,101723.48
2018-10-21T02:56:31.061Z,101720.72
2018-10-21T02:59:00.799Z,101715.59
2018-10-21T03:01:30.593Z,101720.02
2018-10-21T03:04:00.246Z,101720.34
2018-10-21T03:06:30.333Z,101716.83
2018-10-21T03:09:00.158Z,101712.53
2018-10-21T03:11:30.147Z,101705.54
2018-10-21T03:13:59.868Z,101709.83
2018-10-21T03:16:30.077Z,101706.38
2018-10-21T03:18:59.822Z,101705.37
2018-10-21T03:21:29.926Z,101699.80
2018-10-21T03:23:59.626Z,101697.86
2018-10-21T03:26:29.530Z,101692.11
2018-10-21T03:28:59.882Z,101692.93
2018-10-21T03:31:29.923Z,101694.63
2018-10-21T03:33:59.793Z,101691.94
2018-10-21T03:36:29.350Z,101689.30
2018-10-21T03:38:59.268Z,101690.28
2018-10-21T03:41:29.112Z,101688.05
2018-10-21T03:43:59.880Z,101687.42
2018-10-21T03:46:29.593Z,101686.81
2018-10-21T03:48:59.377Z,101683.30
2018-10-21T03:51:29.094Z,101681.39
2018-10-21T03:53:58.856Z,101682.34
2018-10-21T03:56:29.225Z,101680.07
2018-10-21T03:58:59.056Z,101678.91
2018-10-21T04:01:28.831Z,101675.97
2018-10-21T04:03:58.583Z,101673.78
2018-10-21T04:06:28.345Z,101674.41
2018-10-21T04:08:58.051Z,101670.84
2018-10-21T04:11:27.792Z,101666.84
2018-10-21T04:13:57.556Z,101662.50
2018-10-21T04:16:27.288Z,101668.53
2018-10-21T04:18:56.981Z,101667.87
2018-10-21T04:21:26.713Z,101663.37
2018-10-21T04:23:56.537Z,101654.84
2018-10-21T04:26:26.326Z,101647.85
2018-10-21T04:28:56.206Z,101655.95
2018-10-21T04:31:25.972Z,101655.42
2018-10-21T04:33:55.765Z,101651.95
2018-10-21T04:36:27.823Z,101655.84
2018-10-21T04:40:15.744Z,101656.18
2018-10-21T04:42:45.990Z,101657.34
2018-10-21T04:45:18.261Z,101655.22
2018-10-21T04:47:48.102Z,101649.02
2018-10-21T04:50:18.166Z,101656.25
2018-10-21T04:52:47.871Z,101653.64
2018-10-21T04:55:17.857Z,101647.72
2018-10-21T04:57:48.171Z,101652.28
2018-10-21T05:00:19.771Z,101659.06
2018-10-21T05:02:49.575Z,101647.89
2018-10-21T05:05:19.245Z,101643.88
2018-10-21T05:07:49.016Z,101642.06
2018-10-21T05:10:34.887Z,101644.58
2018-10-21T05:13:05.397Z,101651.67
2018-10-21T05:15:36.467Z,101656.14
2018-10-21T05:18:06.927Z,101660.89
2018-10-21T05:20:36.831Z,101665.48
2018-10-21T05:23:06.691Z,101664.66
2018-10-21T05:25:36.463Z,101675.28
2018-10-21T05:28:06.243Z,101678.91
2018-10-21T05:30:35.896Z,101683.00
2018-10-21T05:33:05.877Z,101693.64
2018-10-21T05:35:35.585Z,101698.09
2018-10-21T05:38:05.320Z,101704.09
2018-10-21T05:40:35.069Z,101704.34
2018-10-21T05:43:04.820Z,101709.39
2018-10-21T05:45:34.556Z,101715.88
2018-10-21T05:48:04.169Z,101715.66
2018-10-21T05:50:33.935Z,101720.16
2018-10-21T05:53:03.676Z,101721.33
2018-10-21T05:55:33.412Z,101718.13
2018-10-21T05:58:03.266Z,101717.03
2018-10-21T06:00:33.023Z,101718.78
2018-10-21T06:03:02.764Z,101717.52
2018-10-21T06:05:37.842Z,101714.90
2018-10-21T06:08:07.875Z,101719.62
2018-10-21T06:10:37.574Z,101718.86
2018-10-21T06:13:07.418Z,101720.84
2018-10-21T06:15:37.322Z,101727.00
2018-10-21T06:18:09.715Z,101723.69
2018-10-21T06:20:43.499Z,101723.30
2018-10-21T06:23:13.248Z,101724.87
2018-10-21T06:25:43.461Z,101720.18
2018-10-21T06:28:13.338Z,101721.42
2018-10-21T06:30:43.370Z,101716.17
2018-10-21T06:33:13.082Z,101713.23
2018-10-21T06:35:43.040Z,101710.09
2018-10-21T06:38:12.733Z,101709.80
2018-10-21T06:40:42.472Z,101715.70
2018-10-21T06:43:12.242Z,101699.45
2018-10-21T06:45:41.970Z,101707.19
2018-10-21T06:48:11.738Z,101703.75
2018-10-21T06:50:41.445Z,101714.23
2018-10-21T06:53:11.277Z,101716.06
2018-10-21T06:55:41.077Z,101710.68
2018-10-21T06:58:10.875Z,101714.91
2018-10-21T07:00:40.637Z,101721.75
2018-10-21T07:03:10.320Z,101720.37
2018-10-21T07:06:27.899Z,101712.28
2018-10-21T07:08:59.925Z,101711.57
2018-10-21T07:11:29.651Z,101712.48
2018-10-21T07:13:59.395Z,101714.70
2018-10-21T07:16:29.216Z,101715.75
2018-10-21T07:18:58.916Z,101715.97
2018-10-21T07:21:28.691Z,101712.33
2018-10-21T07:23:58.458Z,101711.67
2018-10-21T07:26:29.037Z,101715.69
2018-10-21T07:28:58.825Z,101717.84
2018-10-21T07:31:28.557Z,101723.34
2018-10-21T07:33:58.308Z,101726.14
2018-10-21T07:36:28.153Z,101731.13
2018-10-21T07:38:57.918Z,101732.80
2018-10-21T07:41:27.732Z,101740.57
2018-10-21T07:43:57.537Z,101736.94
2018-10-21T07:46:27.362Z,101739.39
2018-10-21T07:48:57.177Z,101741.72
2018-10-21T07:51:26.977Z,101742.03
2018-10-21T07:53:56.802Z,101745.97
2018-10-21T07:56:26.611Z,101741.34
2018-10-21T07:58:56.352Z,101738.02
2018-10-21T08:01:26.148Z,101745.08
2018-10-21T08:03:55.860Z,101738.06
2018-10-21T08:07:41.953Z,101738.30
2018-10-21T08:10:11.937Z,101740.41
2018-10-21T08:12:41.635Z,101736.53
2018-10-21T08:15:11.580Z,101740.20
2018-10-21T08:17:41.925Z,101733.28
2018-10-21T08:20:11.731Z,101731.52
2018-10-21T08:22:41.596Z,101736.53
2018-10-21T08:25:11.387Z,101732.78
2018-10-21T08:27:41.220Z,101742.16
2018-10-21T08:30:10.967Z,101738.87
2018-10-21T08:32:40.916Z,101736.64
2018-10-21T08:35:10.716Z,101740.98
2018-10-21T08:37:40.485Z,101738.34
2018-10-21T08:40:10.382Z,101745.36
2018-10-21T08:42:40.153Z,101744.12
2018-10-21T08:45:10.404Z,101743.62
2018-10-21T08:47:40.761Z,101739.75
2018-10-21T08:50:10.996Z,101742.95
2018-10-21T08:52:40.927Z,101744.42
2018-10-21T08:55:11.611Z,101737.34
2018-10-21T08:57:41.751Z,101743.03
2018-10-21T09:00:16.560Z,101745.78
2018-10-21T09:02:46.657Z,101743.02
2018-10-21T09:05:18.760Z,101744.55
2018-10-21T09:07:48.797Z,101742.74
2018-10-21T09:10:19.018Z,101743.19
2018-10-21T09:12:48.794Z,101735.73
2018-10-21T09:15:19.317Z,101745.19
2018-10-21T09:17:49.069Z,101738.87
2018-10-21T09:20:19.587Z,101734.50
2018-10-21T09:22:49.445Z,101734.69
2018-10-21T09:25:19.230Z,101734.19
2018-10-21T09:27:48.977Z,101735.84
2018-10-21T09:30:18.765Z,101730.05
2018-10-21T09:32:48.610Z,101737.28
2018-10-21T09:35:19.275Z,101732.66
2018-10-21T09:37:49.063Z,101732.23
2018-10-21T09:40:20.254Z,101731.10
2018-10-21T09:42:50.575Z,101737.05
2018-10-21T09:45:21.303Z,101738.45
2018-10-21T09:47:51.160Z,101737.33
2018-10-21T09:50:20.931Z,101741.64
2018-10-21T09:52:50.702Z,101734.62
2018-10-21T09:55:21.947Z,101736.67
2018-10-21T09:57:52.024Z,101728.83
2018-10-21T10:00:27.004Z,101731.68
2018-10-21T10:03:01.963Z,101727.08
2018-10-21T10:05:31.877Z,101727.08
2018-10-21T10:08:01.824Z,101726.37
2018-10-21T10:10:31.891Z,101716.32
2018-10-21T10:13:01.918Z,101712.06
2018-10-21T10:15:31.732Z,101711.52
2018-10-21T10:18:01.955Z,101711.87
2018-10-21T10:20:31.740Z,101710.12
2018-10-21T10:23:01.863Z,101709.36
2018-10-21T10:25:31.541Z,101704.50
2018-10-21T10:28:01.621Z,101706.79
2018-10-21T10:30:31.459Z,101702.78
2018-10-21T10:33:01.472Z,101695.45
2018-10-21T10:35:31.166Z,101698.16
2018-10-21T10:38:01.003Z,101688.93
2018-10-21T10:40:30.778Z,101683.25
2018-10-21T10:43:00.727Z,101679.64
2018-10-21T10:45:30.624Z,101677.59
2018-10-21T10:48:00.459Z,101676.46
2018-10-21T10:50:30.228Z,101679.28
2018-10-21T10:53:00.225Z,101672.38
2018-10-21T10:55:35.289Z,101668.38
2018-10-21T10:58:05.673Z,101666.17
2018-10-21T11:00:35.458Z,101660.83
2018-10-21T11:03:05.759Z,101663.56
2018-10-21T11:05:35.695Z,101662.47
2018-10-21T11:08:05.910Z,101652.94
2018-10-21T11:10:35.723Z,101654.20
2018-10-21T11:13:05.752Z,101646.81
2018-10-21T11:15:35.888Z,101649.68
2018-10-21T11:18:05.870Z,101638.17
2018-10-21T11:20:35.712Z,101639.80
2018-10-21T11:23:06.129Z,101643.09
2018-10-21T11:25:35.905Z,101639.87
2018-10-21T11:28:06.204Z,101632.70
2018-10-21T11:30:36.032Z,101632.92
2018-10-21T11:33:07.124Z,101631.42
2018-10-21T11:35:36.891Z,101628.47
2018-10-21T11:38:07.194Z,101629.72
2018-10-21T11:40:37.114Z,101623.77
2018-10-21T11:43:07.462Z,101626.48
2018-10-21T11:45:37.251Z,101622.00
2018-10-21T11:48:07.038Z,101616.39
2018-10-21T11:50:36.918Z,101616.52
2018-10-21T11:53:07.388Z,101612.48
2018-10-21T11:55:39.993Z,101605.97
2018-10-21T11:58:12.594Z,101595.57
2018-10-21T12:00:43.199Z,101595.05
2018-10-21T12:03:13.268Z,101587.72
2018-10-21T12:05:43.813Z,101587.41
2018-10-21T12:08:14.228Z,101593.59
2018-10-21T12:10:44.096Z,101589.58
2018-10-21T12:13:13.999Z,101593.59
2018-10-21T12:15:43.810Z,101581.84
2018-10-21T12:18:13.796Z,101576.22
2018-10-21T12:20:43.692Z,101574.51
2018-10-21T12:23:13.620Z,101571.73
2018-10-21T12:25:43.368Z,101568.33
2018-10-21T12:28:13.623Z,101571.65
2018-10-21T12:30:43.400Z,101561.88
2018-10-21T12:33:13.580Z,101560.96
2018-10-21T12:35:43.389Z,101559.39
2018-10-21T12:38:13.865Z,101553.22
2018-10-21T12:40:43.758Z,101553.61
2018-10-21T12:43:14.014Z,101551.29
2018-10-21T12:45:43.827Z,101551.14
2018-10-21T12:48:14.068Z,101548.47
2018-10-21T12:50:43.893Z,101550.96
2018-10-21T12:53:13.972Z,101543.45
2018-10-21T12:55:47.827Z,101540.86
2018-10-21T12:58:18.038Z,101538.48
2018-10-21T13:00:47.917Z,101539.81
2018-10-21T13:03:17.894Z,101536.88
2018-10-21T13:05:47.779Z,101532.73
2018-10-21T13:08:17.660Z,101534.71
2018-10-21T13:10:47.468Z,101533.89
2018-10-21T13:13:17.550Z,101537.28
2018-10-21T13:15:47.341Z,101526.55
2018-10-21T13:18:17.425Z,101515.94
2018-10-21T13:20:47.377Z,101522.66
2018-10-21T13:23:17.611Z,101519.02
2018-10-21T13:25:47.432Z,101520.56
2018-10-21T13:28:17.791Z,101512.73
2018-10-21T13:30:47.553Z,101511.84
2018-10-21T13:33:17.968Z,101514.41
2018-10-21T13:35:47.885Z,101508.22
2018-10-21T13:38:18.069Z,101506.34
2018-10-21T13:40:48.017Z,101506.47
2018-10-21T13:43:18.575Z,101507.71
2018-10-21T13:45:48.419Z,101499.97
2018-10-21T13:48:18.902Z,101494.91
2018-10-21T13:50:49.228Z,101492.45
2018-10-21T13:53:20.244Z,101489.67
2018-10-21T13:55:50.067Z,101491.23
2018-10-21T13:58:19.950Z,101490.71
2018-10-21T14:00:49.888Z,101491.32
2018-10-21T14:03:19.932Z,101482.38
2018-10-21T14:05:49.896Z,101480.18
2018-10-21T14:08:20.443Z,101477.83
2018-10-21T14:10:50.225Z,101475.88
2018-10-21T14:13:20.446Z,101471.88
2018-10-21T14:15:50.347Z,101471.89
2018-10-21T14:18:20.450Z,101469.80
2018-10-21T14:20:50.277Z,101475.47
2018-10-21T14:23:20.553Z,101467.86
2018-10-21T14:25:50.326Z,101467.95
2018-10-21T14:28:20.981Z,101463.21
2018-10-21T14:30:50.884Z,101465.06
2018-10-21T14:33:21.102Z,101465.38
2018-10-21T14:35:50.883Z,101464.14
2018-10-21T14:38:20.990Z,101456.83
2018-10-21T14:40:50.821Z,101459.81
2018-10-21T14:43:21.051Z,101460.44
2018-10-21T14:45:50.892Z,101455.91
2018-10-21T14:48:20.917Z,101450.13
2018-10-21T14:50:50.776Z,101448.61
2018-10-21T14:53:20.886Z,101447.27
2018-10-21T14:55:50.652Z,101450.14
2018-10-21T14:58:20.836Z,101436.45
2018-10-21T15:00:50.573Z,101432.42
2018-10-21T15:03:20.802Z,101433.27
2018-10-21T15:05:50.662Z,101430.98
2018-10-21T15:08:20.731Z,101431.52
2018-10-21T15:10:50.616Z,101432.44
2018-10-21T15:13:20.397Z,101436.36
2018-10-21T15:15:50.450Z,101431.98
2018-10-21T15:18:20.361Z,101424.69
2018-10-21T15:20:50.133Z,101428.68
2018-10-21T15:23:19.977Z,101420.04
2018-10-21T15:25:49.837Z,101421.89
2018-10-21T15:28:19.744Z,101424.57
2018-10-21T15:30:49.508Z,101417.67
2018-10-21T15:33:19.272Z,101417.47
2018-10-21T15:35:49.096Z,101413.72
2018-10-21T15:38:18.934Z,101408.85
2018-10-21T15:40:48.895Z,101409.87
2018-10-21T15:43:18.662Z,101409.84
2018-10-21T15:45:48.738Z,101402.63
2018-10-21T15:48:18.508Z,101399.80
2018-10-21T15:50:48.312Z,101403.37
2018-10-21T15:53:18.154Z,101403.97
2018-10-21T15:55:48.063Z,101405.27
2018-10-21T15:58:17.993Z,101402.48
2018-10-21T16:00:48.451Z,101402.36
2018-10-21T16:03:18.178Z,101404.33
2018-10-21T16:05:48.040Z,101401.24
2018-10-21T16:08:17.962Z,101405.25
2018-10-21T16:10:47.802Z,101411.03
2018-10-21T16:13:17.592Z,101409.72
2018-10-21T16:15:47.453Z,101403.56
2018-10-21T16:18:17.458Z,101409.56
2018-10-21T16:20:47.458Z,101403.45
2018-10-21T16:23:17.666Z,101403.66
2018-10-21T16:25:47.685Z,101403.91
2018-10-21T16:28:17.799Z,101407.60
2018-10-21T16:30:47.578Z,101407.20
2018-10-21T16:33:18.251Z,101411.92
2018-10-21T16:35:48.295Z,101409.75
2018-10-21T16:38:18.150Z,101415.77
2018-10-21T16:40:47.980Z,101411.72
2018-10-21T16:43:17.837Z,101411.65
2018-10-21T16:45:47.692Z,101413.34
2018-10-21T16:48:17.698Z,101410.00
2018-10-21T16:50:47.533Z,101413.90
2018-10-21T16:53:17.470Z,101410.63
2018-10-21T16:55:47.360Z,101405.91
2018-10-21T16:58:17.316Z,101411.70
2018-10-21T17:00:47.207Z,101409.20
2018-10-21T17:03:17.110Z,101408.84
2018-10-21T17:05:47.004Z,101416.55
2018-10-21T17:08:16.785Z,101415.65
2018-10-21T17:10:46.734Z,101415.48
2018-10-21T17:13:16.734Z,101413.88
2018-10-21T17:15:46.483Z,101412.92
2018-10-21T17:18:16.379Z,101408.41
2018-10-21T17:20:46.384Z,101417.22
2018-10-21T17:23:16.183Z,101416.48
2018-10-21T17:25:46.005Z,101416.91
2018-10-21T17:28:15.882Z,101418.01
2018-10-21T17:30:45.793Z,101419.05
2018-10-21T17:33:15.676Z,101414.66
2018-10-21T17:35:45.515Z,101414.62
2018-10-21T17:38:16.361Z,101416.91
2018-10-21T17:40:46.305Z,101410.28
2018-10-21T17:43:16.323Z,101415.81
2018-10-21T17:45:46.028Z,101413.45
2018-10-21T17:48:15.862Z,101422.11
2018-10-21T17:50:45.843Z,101415.28
2018-10-21T17:53:15.752Z,101409.55
2018-10-21T17:55:45.620Z,101405.88
2018-10-21T17:58:15.492Z,101412.45
2018-10-21T18:00:45.220Z,101412.94
2018-10-21T18:03:15.572Z,101412.47
2018-10-21T18:05:45.509Z,101409.20
2018-10-21T18:08:15.430Z,101411.66
2018-10-21T18:10:45.506Z,101413.36
2018-10-21T18:13:15.387Z,101409.21
2018-10-21T18:15:45.417Z,101413.28
2018-10-21T18:18:15.388Z,101414.95
2018-10-21T18:20:45.411Z,101419.20
2018-10-21T18:23:15.271Z,101419.22
2018-10-21T18:25:45.140Z,101420.58
2018-10-21T18:28:15.124Z,101418.62
2018-10-21T18:30:44.999Z,101420.34
2018-10-21T18:33:14.891Z,101422.23
2018-10-21T18:35:44.713Z,101420.22
2018-10-21T18:38:14.699Z,101417.73
2018-10-21T18:40:44.686Z,101418.44
2018-10-21T18:43:14.540Z,101411.00
2018-10-21T18:45:44.589Z,101409.66
2018-10-21T18:48:14.771Z,101410.06
2018-10-21T18:50:44.752Z,101415.03
2018-10-21T18:53:14.915Z,101412.38
2018-10-21T18:55:44.856Z,101410.03
2018-10-21T18:58:15.067Z,101407.08
2018-10-21T19:00:44.965Z,101409.87
2018-10-21T19:03:15.541Z,101419.55
2018-10-21T19:05:45.590Z,101414.85
2018-10-21T19:08:15.458Z,101404.88
2018-10-21T19:10:45.306Z,101410.07
2018-10-21T19:13:15.285Z,101406.55
2018-10-21T19:15:45.126Z,101408.30
2018-10-21T19:18:14.950Z,101409.02
2018-10-21T19:20:45.006Z,101403.38
2018-10-21T19:23:15.365Z,101406.05
2018-10-21T19:25:45.241Z,101398.08
2018-10-21T19:28:15.186Z,101403.70
2018-10-21T19:30:45.151Z,101399.09
2018-10-21T19:33:15.077Z,101403.58
2018-10-21T19:35:45.460Z,101400.30
2018-10-21T19:38:15.429Z,101399.98
2018-10-21T19:40:45.515Z,101406.25
2018-10-21T19:43:15.481Z,101409.08
2018-10-21T19:45:46.259Z,101408.91
2018-10-21T19:48:16.183Z,101408.94
2018-10-21T19:50:46.559Z,101405.11
2018-10-21T19:53:16.428Z,101401.30
2018-10-21T19:55:46.659Z,101405.78
2018-10-21T19:58:16.757Z,101399.30
2018-10-21T20:00:46.882Z,101400.45
2018-10-21T20:03:16.689Z,101401.58
2018-10-21T20:05:46.820Z,101398.98
2018-10-21T20:08:16.688Z,101404.61
2018-10-21T20:10:47.026Z,101398.02
2018-10-21T20:13:16.945Z,101394.19
2018-10-21T20:15:47.209Z,101398.80
2018-10-21T20:18:17.423Z,101400.44
2018-10-21T20:20:47.340Z,101403.59
2018-10-21T20:23:17.517Z,101402.95
2018-10-21T20:25:47.655Z,101411.17
2018-10-21T20:28:17.468Z,101408.20
2018-10-21T20:30:47.574Z,101407.39
2018-10-21T20:33:17.467Z,101406.06
2018-10-21T20:35:47.505Z,101404.09
2018-10-21T20:38:17.325Z,101405.09
2018-10-21T20:40:47.466Z,101407.20
2018-10-21T20:43:17.467Z,101406.56
2018-10-21T20:45:54.099Z,101411.17
2018-10-21T20:48:24.737Z,101415.20
2018-10-21T20:50:54.649Z,101411.92
2018-10-21T20:53:24.574Z,101417.87
2018-10-21T20:55:54.341Z,101413.56
2018-10-21T20:58:24.240Z,101411.92
2018-10-21T21:00:54.061Z,101423.36
2018-10-21T21:03:23.838Z,101425.36
2018-10-21T21:05:53.687Z,101432.13
2018-10-21T21:08:23.598Z,101435.61
2018-10-21T21:10:53.436Z,101435.43
2018-10-21T21:13:23.206Z,101436.29
2018-10-21T21:15:52.938Z,101447.72
2018-10-21T21:18:22.793Z,101444.09
2018-10-21T21:20:53.026Z,101448.41
2018-10-21T21:23:22.714Z,101449.58
2018-10-21T21:25:52.692Z,101450.05
2018-10-21T21:28:22.386Z,101446.24
2018-10-21T21:30:52.540Z,101450.24
2018-10-21T21:33:22.436Z,101445.44
2018-10-21T21:35:52.540Z,101450.39
2018-10-21T21:38:22.312Z,101441.12
2018-10-21T21:40:52.473Z,101439.44
2018-10-21T21:43:22.372Z,101440.45
2018-10-21T21:45:52.591Z,101441.42
2018-10-21T21:48:22.406Z,101449.70
2018-10-21T21:50:52.539Z,101442.59
2018-10-21T21:53:22.254Z,101441.41
2018-10-21T21:55:52.295Z,101443.06
2018-10-21T21:58:22.073Z,101438.76
2018-10-21T22:00:52.292Z,101435.43
2018-10-21T22:03:22.279Z,101439.41
2018-10-21T22:05:52.421Z,101441.56
2018-10-21T22:08:23.255Z,101435.61
2018-10-21T22:10:53.339Z,101440.45
2018-10-21T22:13:23.177Z,101440.59
2018-10-21T22:15:53.690Z,101435.28
2018-10-21T22:18:23.728Z,101435.11
2018-10-21T22:20:53.972Z,101434.46
2018-10-21T22:23:23.955Z,101434.28
2018-10-21T22:25:54.000Z,101436.05
2018-10-21T22:28:23.806Z,101429.66
2018-10-21T22:30:53.584Z,101437.47
2018-10-21T22:33:23.336Z,101438.14
2018-10-21T22:35:53.529Z,101445.09
2018-10-21T22:38:23.266Z,101445.92
2018-10-21T22:40:53.054Z,101443.77
2018-10-21T22:43:22.809Z,101444.60
2018-10-21T22:45:52.649Z,101445.07
2018-10-21T22:48:22.492Z,101440.27
2018-10-21T22:50:52.419Z,101443.23
2018-10-21T22:53:22.114Z,101444.39
2018-10-21T22:55:51.870Z,101439.73
2018-10-21T22:58:21.573Z,101434.59
2018-10-21T23:00:51.290Z,101435.42
2018-10-21T23:03:21.117Z,101434.27
2018-10-21T23:05:50.899Z,101437.89
2018-10-21T23:08:20.727Z,101428.09
2018-10-21T23:10:50.509Z,101425.94
2018-10-21T23:13:20.247Z,101421.09
2018-10-21T23:15:50.004Z,101421.59
2018-10-21T23:18:19.751Z,101422.07
2018-10-21T23:20:49.463Z,101422.85
2018-10-21T23:23:19.231Z,101422.84
2018-10-21T23:25:48.886Z,101418.15
2018-10-21T23:28:18.791Z,101422.94
2018-10-21T23:30:48.643Z,101430.04
2018-10-21T23:33:18.480Z,101425.99
2018-10-21T23:35:48.227Z,101426.46
2018-10-21T23:38:18.013Z,101427.25
2018-10-21T23:40:47.757Z,101430.59
2018-10-21T23:43:17.686Z,101426.23
2018-10-21T23:45:54.122Z,101431.21
2018-10-21T23:48:23.975Z,101431.80
2018-10-21T23:50:53.760Z,101431.68
2018-10-21T23:53:23.470Z,101425.77
2018-10-21T23:55:53.170Z,101433.27
2018-10-21T23:58:22.965Z,101432.98
